createdAt,value
2023-02-22T06:24:18.515Z,4.2
2023-02-22T06:27:18.141Z,4.2
2023-02-22T06:30:17.842Z,0.8
2023-02-22T06:33:17.881Z,1.1
2023-02-22T06:36:18.442Z,1.6
2023-02-22T06:39:18.096Z,2.2
2023-02-22T06:42:18.492Z,2.6
2023-02-22T06:45:18.355Z,2.9
2023-02-22T06:48:17.782Z,3.6
2023-02-22T06:51:18.573Z,4.1
2023-02-22T06:54:17.824Z,4.4
2023-02-22T06:57:17.972Z,4.7
2023-02-22T07:00:18.672Z,5.2
2023-02-22T07:03:18.583Z,5.9
2023-02-22T07:06:18.123Z,6.6
2023-02-22T07:09:18.207Z,7.5
2023-02-22T07:12:18.474Z,7.9
2023-02-22T07:15:17.808Z,8.9
2023-02-22T07:18:18.337Z,10.1
2023-02-22T07:21:18.852Z,12
2023-02-22T07:24:18.677Z,13.2
2023-02-22T07:27:18.394Z,14.1
2023-02-22T07:30:28.306Z,14.8
2023-02-22T07:33:18.350Z,15.6
2023-02-22T07:36:17.740Z,16.5
2023-02-22T07:39:18.455Z,18.3
2023-02-22T07:42:18.606Z,20.6
2023-02-22T07:45:18.635Z,22.8
2023-02-22T07:48:17.960Z,24.9
2023-02-22T07:51:18.861Z,27.8
2023-02-22T07:54:18.678Z,33.3
2023-02-22T07:57:17.883Z,37.3
2023-02-22T08:00:19.811Z,39.2
2023-02-22T08:03:18.320Z,39.1
2023-02-22T08:06:18.624Z,40.5
2023-02-22T08:09:18.453Z,42.4
2023-02-22T08:12:17.783Z,44.4
2023-02-22T08:15:18.635Z,44.8
2023-02-22T08:18:18.046Z,47.6
2023-02-22T08:21:18.713Z,50.4
2023-02-22T08:24:17.763Z,52.7
2023-02-22T08:27:18.255Z,51.5
2023-02-22T08:30:18.850Z,49.6
2023-02-22T08:33:18.432Z,49.2
2023-02-22T08:36:18.345Z,50.2
2023-02-22T08:39:18.276Z,56.6
2023-02-22T08:42:18.670Z,64.1
2023-02-22T08:45:18.656Z,73.5
2023-02-22T08:48:18.088Z,79.6
2023-02-22T08:51:18.843Z,84.3
2023-02-22T08:54:18.096Z,84.5
2023-02-22T08:57:21.566Z,85.6
2023-02-22T09:00:18.608Z,86.7
2023-02-22T09:03:18.561Z,89.6
2023-02-22T09:06:18.062Z,90.6
2023-02-22T09:09:18.776Z,91.7
2023-02-22T09:12:18.274Z,92.4
2023-02-22T09:15:27.999Z,96.1
2023-02-22T09:18:17.705Z,99.5
2023-02-22T09:21:18.324Z,106.3
2023-02-22T09:24:18.337Z,105.9
2023-02-22T09:27:17.948Z,108.2
2023-02-22T09:30:18.788Z,114.5
2023-02-22T09:33:18.501Z,131.6
2023-02-22T09:36:26.126Z,136.8
2023-02-22T09:39:18.145Z,135.2
2023-02-22T09:42:18.068Z,125.8
2023-02-22T09:45:18.447Z,130.6
2023-02-22T09:48:21.991Z,146.6
2023-02-22T09:51:18.290Z,165.5
2023-02-22T09:54:18.484Z,180.8
2023-02-22T09:57:18.114Z,193.4
2023-02-22T10:00:18.588Z,202.7
2023-02-22T10:03:21.070Z,192.5
2023-02-22T10:06:18.624Z,175.6
2023-02-22T10:09:18.805Z,154.7
2023-02-22T10:12:18.446Z,156
2023-02-22T10:15:17.690Z,150.6
2023-02-22T10:18:18.557Z,142.8
2023-02-22T10:21:18.272Z,132.7
2023-02-22T10:24:24.638Z,118.2
2023-02-22T10:27:18.239Z,114
2023-02-22T10:30:24.512Z,115.5
2023-02-22T10:33:18.126Z,119.3
2023-02-22T10:36:18.775Z,117.5
2023-02-22T10:39:19.094Z,124.4
2023-02-22T10:42:17.698Z,133.6
2023-02-22T10:45:18.005Z,147.5
2023-02-22T10:48:18.287Z,156.5
2023-02-22T10:51:17.980Z,172.6
2023-02-22T10:54:18.573Z,191.8
2023-02-22T10:57:17.794Z,199.5
2023-02-22T11:00:18.390Z,207.1
2023-02-22T11:03:17.888Z,212.2
2023-02-22T11:06:18.321Z,221.5
2023-02-22T11:09:17.908Z,216.5
2023-02-22T11:12:18.794Z,207.1
2023-02-22T11:15:18.541Z,212.1
2023-02-22T11:18:17.983Z,222.3
2023-02-22T11:21:19.068Z,213
2023-02-22T11:27:18.264Z,141.6
2023-02-22T11:30:18.619Z,131.9
2023-02-22T11:33:18.892Z,141.6
2023-02-22T11:36:18.308Z,172.9
2023-02-22T11:39:17.923Z,232.4
2023-02-22T11:42:18.262Z,312.9
2023-02-22T11:45:18.224Z,366.8
2023-02-22T11:48:20.542Z,357.2
2023-02-22T11:51:18.455Z,355.4
2023-02-22T11:54:18.335Z,348.3
2023-02-22T11:57:17.919Z,342.6
2023-02-22T12:00:18.206Z,325
2023-02-22T12:03:19.140Z,303.9
2023-02-22T12:06:19.043Z,274.6
2023-02-22T12:09:18.343Z,241.3
2023-02-22T12:12:17.908Z,224.6
2023-02-22T12:15:18.472Z,203.4
2023-02-22T12:18:17.796Z,192.8
2023-02-22T12:21:18.163Z,174.9
2023-02-22T12:24:18.731Z,156.1
2023-02-22T12:27:18.464Z,144
2023-02-22T12:30:18.174Z,149.3
2023-02-22T12:33:18.163Z,153.4
2023-02-22T12:36:18.862Z,152.2
2023-02-22T12:39:18.281Z,141.1
2023-02-22T12:42:18.727Z,137.8
2023-02-22T12:45:18.239Z,139
2023-02-22T12:48:18.689Z,140.6
2023-02-22T12:51:18.186Z,137.5
2023-02-22T12:54:23.048Z,134.3
2023-02-22T12:57:18.660Z,136.9
2023-02-22T13:00:21.380Z,141.9
2023-02-22T13:04:21.091Z,141.5
2023-02-22T13:06:27.489Z,141.3
2023-02-22T13:09:26.995Z,147.4
2023-02-22T13:12:27.540Z,152.1
2023-02-22T13:15:27.355Z,146.4
2023-02-22T13:18:27.978Z,131.2
2023-02-22T13:21:27.739Z,123.3
2023-02-22T13:24:27.494Z,119.7
2023-02-22T13:27:27.264Z,120.4
2023-02-22T13:30:27.781Z,122.9
2023-02-22T13:33:27.531Z,128.3
2023-02-22T13:36:26.996Z,134.7
2023-02-22T13:39:27.474Z,138.2
2023-02-22T13:42:26.964Z,146.4
2023-02-22T13:45:27.523Z,156.9
2023-02-22T13:48:27.176Z,160.2
2023-02-22T13:51:27.594Z,153.7
2023-02-22T13:54:28.861Z,138.9
2023-02-22T13:57:27.762Z,132.5
2023-02-22T14:00:27.388Z,127.8
2023-02-22T14:03:27.241Z,130.6
2023-02-22T14:06:27.811Z,124.4
2023-02-22T14:09:27.675Z,124.1
2023-02-22T14:12:27.240Z,121.3
2023-02-22T14:15:30.154Z,121.3
2023-02-22T14:18:27.725Z,112.3
2023-02-22T14:21:27.247Z,105.3
2023-02-22T14:24:26.822Z,97.3
2023-02-22T14:27:27.768Z,91.8
2023-02-22T14:30:40.934Z,86.4
2023-02-22T14:33:28.063Z,83
2023-02-22T14:36:27.824Z,81.8
2023-02-22T14:39:27.509Z,81.1
2023-02-22T14:42:27.279Z,83.1
2023-02-22T14:45:29.247Z,88.3
2023-02-22T14:48:27.807Z,94.3
2023-02-22T14:51:21.832Z,96.7
2023-02-22T14:54:18.224Z,97.3
2023-02-22T14:57:19.805Z,96.8
2023-02-22T15:00:21.929Z,94.8
2023-02-22T15:03:18.505Z,90
2023-02-22T15:06:24.507Z,86.4
2023-02-22T15:09:18.440Z,83.4
2023-02-22T15:12:17.959Z,80.5
2023-02-22T15:15:18.775Z,77.5
2023-02-22T15:18:18.457Z,72.8
2023-02-22T15:21:18.549Z,68.1
2023-02-22T15:24:18.943Z,63.3
2023-02-22T15:27:18.550Z,58.4
2023-02-22T15:30:20.174Z,53.6
2023-02-22T15:33:17.982Z,49
2023-02-22T15:36:18.730Z,45.8
2023-02-22T15:39:18.327Z,41.4
2023-02-22T15:42:18.124Z,37.1
2023-02-22T15:45:18.650Z,32.9
2023-02-22T15:48:18.459Z,28.9
2023-02-22T15:51:18.370Z,25.2
2023-02-22T15:54:27.163Z,23.1
2023-02-22T15:57:18.715Z,20.4
2023-02-22T16:00:18.592Z,18.2
2023-02-22T16:03:18.110Z,16.5
2023-02-22T16:06:17.691Z,14.9
2023-02-22T16:09:19.162Z,13.4
2023-02-22T16:12:18.252Z,12.1
2023-02-22T16:15:34.133Z,10.7
2023-02-22T16:18:18.604Z,9.8
2023-02-22T16:21:18.412Z,8.5
2023-02-22T16:24:19.316Z,7.4
2023-02-22T16:27:18.335Z,6.3
2023-02-22T16:30:24.027Z,5.1
2023-02-22T16:33:19.454Z,4.1
2023-02-22T16:36:18.226Z,3.4
2023-02-22T16:39:18.561Z,2.6
2023-02-22T16:42:18.095Z,2
2023-02-22T16:45:18.574Z,1.4
2023-02-22T16:48:18.265Z,1
2023-02-22T16:51:17.879Z,0.9
2023-02-22T16:54:18.427Z,0.9
2023-02-22T16:57:17.459Z,0.9
2023-02-22T17:00:18.083Z,0.9
2023-02-22T17:03:18.871Z,0.9
2023-02-22T17:06:18.842Z,0.9
2023-02-22T17:09:26.595Z,0.9
2023-02-22T17:12:18.082Z,0.9
2023-02-22T17:15:18.740Z,0.9
2023-02-22T17:18:18.247Z,0.9
2023-02-22T17:21:17.961Z,0.9
2023-02-22T17:24:18.531Z,0.9
2023-02-22T17:27:18.002Z,0.9
2023-02-22T17:30:18.674Z,0.9
2023-02-22T17:33:18.609Z,0.9
2023-02-22T17:36:18.825Z,0.9
2023-02-22T17:39:18.142Z,0.9
2023-02-22T17:42:18.860Z,0.9
2023-02-22T17:45:18.323Z,0.9
2023-02-22T17:48:18.152Z,0.9
2023-02-22T20:09:18.858Z,4.2
2023-02-22T20:12:18.739Z,4.2
2023-02-22T20:15:18.470Z,4.2
2023-02-22T20:18:17.903Z,4.2
2023-02-22T20:21:18.541Z,4.2
2023-02-22T20:24:18.558Z,4.2
2023-02-22T20:27:18.217Z,4.2
2023-02-22T20:30:18.672Z,4.2
2023-02-22T20:33:18.391Z,4.2
2023-02-22T20:36:18.772Z,4.2
2023-02-22T20:39:18.320Z,4.2
2023-02-22T20:42:19.085Z,4.2
2023-02-22T20:45:18.564Z,4.2
2023-02-22T20:48:17.868Z,4.2
2023-02-22T20:51:18.634Z,4.2
2023-02-22T20:54:18.906Z,4.2
2023-02-22T20:57:18.491Z,4.2
2023-02-22T21:00:18.067Z,4.2
2023-02-22T21:03:19.071Z,4.2
2023-02-22T21:06:18.685Z,4.2
